createdAt,value
2018-12-31T00:02:35.952Z,96880.66
2018-12-31T00:05:19.480Z,96880.56
2018-12-31T00:08:03.620Z,96870.60
2018-12-31T00:10:54.080Z,96880.83
2018-12-31T00:13:37.218Z,96881.07
2018-12-31T00:16:27.730Z,96879.84
2018-12-31T00:19:10.686Z,96884.64
2018-12-31T00:22:01.193Z,96877.45
2018-12-31T00:24:44.749Z,96882.48
2018-12-31T00:27:35.270Z,96873.59
2018-12-31T00:30:18.729Z,96876.95
2018-12-31T00:33:09.300Z,96882.63
2018-12-31T00:35:52.426Z,96876.80
2018-12-31T00:38:42.884Z,96880.43
2018-12-31T00:41:25.801Z,96882.94
2018-12-31T00:44:08.608Z,96886.77
2018-12-31T00:46:59.058Z,96891.03
2018-12-31T00:49:41.838Z,96885.23
2018-12-31T00:52:32.394Z,96892.30
2018-12-31T00:55:15.777Z,96891.36
2018-12-31T00:58:06.298Z,96888.61
2018-12-31T01:00:49.436Z,96887.12
2018-12-31T01:03:39.973Z,96889.95
2018-12-31T01:06:30.501Z,96892.25
2018-12-31T01:09:21.018Z,96894.75
2018-12-31T01:12:04.354Z,96897.50
2018-12-31T01:14:47.748Z,96897.62
2018-12-31T01:17:38.349Z,96900.08
2018-12-31T01:20:21.552Z,96902.99
2018-12-31T01:23:12.064Z,96896.63
2018-12-31T01:25:53.656Z,96901.59
2018-12-31T01:28:44.182Z,96907.06
2018-12-31T01:31:27.542Z,96909.87
2018-12-31T01:34:18.096Z,96904.92
2018-12-31T01:37:08.567Z,96912.11
2018-12-31T01:39:51.334Z,96910.94
2018-12-31T01:42:41.787Z,96903.41
2018-12-31T01:45:25.107Z,96901.41
2018-12-31T01:48:15.640Z,96899.89
2018-12-31T01:50:59.030Z,96899.05
2018-12-31T01:53:49.465Z,96899.95
2018-12-31T01:56:32.975Z,96903.81
2018-12-31T01:59:23.503Z,96907.37
2018-12-31T02:02:04.936Z,96900.61
2018-12-31T02:04:55.453Z,96902.48
2018-12-31T02:07:38.687Z,96902.42
2018-12-31T02:10:29.181Z,96900.44
2018-12-31T02:13:12.629Z,96893.89
2018-12-31T02:16:03.251Z,96894.86
2018-12-31T02:18:46.350Z,96897.08
2018-12-31T02:21:29.349Z,96891.72
2018-12-31T02:24:19.877Z,96896.52
2018-12-31T02:27:03.267Z,96892.12
2018-12-31T02:29:53.774Z,96894.27
2018-12-31T02:32:37.288Z,96887.09
2018-12-31T02:35:20.015Z,96878.84
2018-12-31T02:38:10.557Z,96879.66
2018-12-31T02:40:53.442Z,96878.55
2018-12-31T02:43:44.253Z,96883.30
2018-12-31T02:46:27.496Z,96880.56
2018-12-31T02:49:18.504Z,96878.03
2018-12-31T02:52:01.899Z,96876.40
2018-12-31T02:54:52.343Z,96877.58
2018-12-31T02:57:35.586Z,96878.22
2018-12-31T03:00:26.293Z,96875.13
2018-12-31T03:03:09.771Z,96871.94
2018-12-31T03:09:02.828Z,96862.68
2018-12-31T03:11:54.015Z,96854.06
2018-12-31T03:14:37.546Z,96848.80
2018-12-31T03:17:28.082Z,96853.56
2018-12-31T03:20:10.865Z,96855.64
2018-12-31T03:22:54.337Z,96853.16
2018-12-31T03:25:44.899Z,96861.95
2018-12-31T03:28:26.484Z,96862.71
2018-12-31T03:31:16.998Z,96850.41
2018-12-31T03:33:58.532Z,96855.11
2018-12-31T03:36:42.135Z,96848.01
2018-12-31T03:39:32.704Z,96852.73
2018-12-31T03:42:16.137Z,96853.27
2018-12-31T03:45:07.375Z,96851.89
2018-12-31T03:47:50.916Z,96845.52
2018-12-31T03:50:41.461Z,96851.22
2018-12-31T03:53:24.526Z,96848.13
2018-12-31T03:56:15.041Z,96849.94
2018-12-31T03:58:58.405Z,96844.53
2018-12-31T04:01:48.942Z,96841.88
2018-12-31T04:04:32.347Z,96844.03
2018-12-31T04:07:22.854Z,96843.85
2018-12-31T04:10:04.379Z,96844.88
2018-12-31T04:12:54.903Z,96846.08
2018-12-31T04:15:38.433Z,96841.55
2018-12-31T04:18:28.946Z,96837.63
2018-12-31T04:21:10.476Z,96837.13
2018-12-31T04:24:01.028Z,96831.39
2018-12-31T04:26:44.369Z,96824.21
2018-12-31T04:29:27.817Z,96821.17
2018-12-31T04:32:18.340Z,96812.08
2018-12-31T04:35:01.351Z,96810.75
2018-12-31T04:37:51.861Z,96813.00
2018-12-31T04:40:34.940Z,96812.61
2018-12-31T04:43:25.463Z,96811.19
2018-12-31T04:46:14.562Z,96811.02
2018-12-31T04:49:05.090Z,96817.13
2018-12-31T04:51:48.471Z,96819.25
2018-12-31T04:54:38.989Z,96826.25
2018-12-31T04:57:22.223Z,96816.91
2018-12-31T05:00:12.769Z,96820.37
2018-12-31T05:02:55.686Z,96807.69
2018-12-31T05:05:46.234Z,96807.16
2018-12-31T05:08:29.505Z,96809.67
2018-12-31T05:11:20.025Z,96810.20
2018-12-31T05:14:03.452Z,96808.36
2018-12-31T05:16:54.033Z,96815.34
2018-12-31T05:19:35.483Z,96823.28
2018-12-31T05:22:26.025Z,96820.19
2018-12-31T05:25:10.947Z,96818.26
2018-12-31T05:28:01.483Z,96810.43
2018-12-31T05:30:44.345Z,96808.64
2018-12-31T05:33:34.796Z,96816.09
2018-12-31T05:36:17.940Z,96828.55
2018-12-31T05:39:08.814Z,96829.38
2018-12-31T05:41:50.316Z,96840.26
2018-12-31T05:44:40.822Z,96844.84
2018-12-31T05:47:24.150Z,96844.50
2018-12-31T05:50:14.652Z,96840.78
2018-12-31T05:52:58.123Z,96845.41
2018-12-31T05:55:48.639Z,96842.75
2018-12-31T05:58:31.776Z,96843.36
2018-12-31T06:01:22.298Z,96853.72
2018-12-31T06:04:05.808Z,96850.38
2018-12-31T06:06:49.151Z,96835.87
2018-12-31T06:09:39.722Z,96836.21
2018-12-31T06:12:22.902Z,96834.62
2018-12-31T06:15:13.429Z,96831.50
2018-12-31T06:17:56.528Z,96828.92
2018-12-31T06:20:47.044Z,96845.36
2018-12-31T06:23:32.155Z,96848.25
2018-12-31T06:26:22.316Z,96861.18
2018-12-31T06:29:05.251Z,96866.86
2018-12-31T06:31:55.756Z,96866.16
2018-12-31T06:34:38.861Z,96878.63
2018-12-31T06:37:22.319Z,96889.12
2018-12-31T06:40:05.666Z,96876.11
2018-12-31T06:42:48.623Z,96862.35
2018-12-31T06:45:39.132Z,96855.63
2018-12-31T06:48:22.562Z,96860.16
2018-12-31T06:51:13.080Z,96851.23
2018-12-31T06:53:54.463Z,96851.88
2018-12-31T06:56:44.973Z,96861.56
2018-12-31T06:59:28.221Z,96876.64
2018-12-31T07:02:18.648Z,96866.06
2018-12-31T07:05:01.799Z,96863.64
2018-12-31T07:07:52.378Z,96867.46
2018-12-31T07:10:35.559Z,96875.31
2018-12-31T07:13:18.872Z,96881.78
2018-12-31T07:16:09.394Z,96887.58
2018-12-31T07:18:52.934Z,96897.20
2018-12-31T07:21:43.452Z,96900.75
2018-12-31T07:24:26.451Z,96892.60
2018-12-31T07:27:16.960Z,96888.53
2018-12-31T07:30:00.532Z,96878.69
2018-12-31T07:33:02.926Z,96885.11
2018-12-31T07:35:41.700Z,96886.19
2018-12-31T07:38:25.117Z,96891.97
2018-12-31T07:41:07.822Z,96887.41
2018-12-31T07:43:58.346Z,96895.27
2018-12-31T07:46:41.168Z,96889.97
2018-12-31T07:49:31.779Z,96900.78
2018-12-31T07:52:14.890Z,96906.41
2018-12-31T07:55:05.650Z,96906.19
2018-12-31T07:57:49.102Z,96907.37
2018-12-31T08:00:39.641Z,96903.52
2018-12-31T08:03:22.858Z,96903.89
2018-12-31T08:06:13.390Z,96896.51
2018-12-31T08:08:56.749Z,96900.41
2018-12-31T08:11:47.291Z,96899.98
2018-12-31T08:14:30.622Z,96898.17
2018-12-31T08:17:21.136Z,96900.14
2018-12-31T08:20:04.549Z,96903.98
2018-12-31T08:22:48.013Z,96899.18
2018-12-31T08:25:38.556Z,96903.48
2018-12-31T08:28:22.013Z,96895.12
2018-12-31T08:31:04.751Z,96890.50
2018-12-31T08:33:55.252Z,96896.67
2018-12-31T08:36:38.799Z,96899.98
2018-12-31T08:39:29.315Z,96895.17
2018-12-31T08:42:12.728Z,96902.03
2018-12-31T08:45:03.279Z,96895.20
2018-12-31T08:47:46.606Z,96903.45
2018-12-31T08:50:37.149Z,96898.13
2018-12-31T08:53:20.048Z,96906.41
2018-12-31T08:56:10.677Z,96908.00
2018-12-31T08:58:53.349Z,96907.37
2018-12-31T09:01:43.939Z,96909.64
2018-12-31T09:04:28.405Z,96908.77
2018-12-31T09:07:18.871Z,96916.05
2018-12-31T09:10:02.249Z,96919.27
2018-12-31T09:12:52.783Z,96917.83
2018-12-31T09:15:36.066Z,96906.83
2018-12-31T09:18:26.614Z,96910.66
2018-12-31T09:21:09.674Z,96916.01
2018-12-31T09:23:51.230Z,96914.41
2018-12-31T09:26:41.788Z,96917.97
2018-12-31T09:29:23.328Z,96924.73
2018-12-31T09:32:13.888Z,96927.04
2018-12-31T09:34:57.283Z,96919.22
2018-12-31T09:37:40.867Z,96925.38
2018-12-31T09:40:31.365Z,96922.17
2018-12-31T09:43:14.462Z,96924.77
2018-12-31T09:46:05.001Z,96911.97
2018-12-31T09:48:48.794Z,96915.20
2018-12-31T09:51:39.331Z,96906.94
2018-12-31T09:54:22.744Z,96900.21
2018-12-31T09:57:13.254Z,96890.34
2018-12-31T09:59:56.291Z,96891.90
2018-12-31T10:05:48.307Z,96895.31
2018-12-31T10:08:31.513Z,96896.59
2018-12-31T10:11:22.082Z,96892.28
2018-12-31T10:14:05.346Z,96887.71
2018-12-31T10:20:20.783Z,96892.11
2018-12-31T10:23:04.082Z,96889.19
2018-12-31T10:25:47.037Z,96883.98
2018-12-31T10:28:37.606Z,96886.03
2018-12-31T10:31:20.370Z,96883.13
2018-12-31T10:34:03.176Z,96891.70
2018-12-31T10:36:53.747Z,96875.63
2018-12-31T10:39:36.579Z,96884.17
2018-12-31T10:42:27.175Z,96881.31
2018-12-31T10:45:10.365Z,96887.73
2018-12-31T10:48:01.901Z,96887.33
2018-12-31T10:50:46.466Z,96883.76
2018-12-31T10:53:37.039Z,96890.52
2018-12-31T10:56:20.195Z,96887.69
2018-12-31T11:02:13.209Z,96880.41
2018-12-31T11:05:03.734Z,96880.78
2018-12-31T11:07:47.023Z,96875.00
2018-12-31T11:10:37.641Z,96883.50
2018-12-31T11:13:21.006Z,96875.42
2018-12-31T11:16:11.558Z,96872.45
2018-12-31T11:18:54.807Z,96878.50
2018-12-31T11:21:45.488Z,96875.78
2018-12-31T11:24:28.716Z,96868.00
2018-12-31T11:27:19.231Z,96860.49
2018-12-31T11:30:02.789Z,96856.91
2018-12-31T11:32:53.357Z,96861.27
2018-12-31T11:35:36.933Z,96856.80
2018-12-31T11:38:27.625Z,96852.50
2018-12-31T11:41:18.295Z,96848.34
2018-12-31T11:43:59.880Z,96854.84
2018-12-31T11:46:50.453Z,96833.14
2018-12-31T11:49:33.757Z,96832.48
2018-12-31T11:52:24.352Z,96830.27
2018-12-31T11:55:07.606Z,96822.54
2018-12-31T11:57:51.063Z,96821.69
2018-12-31T12:00:41.603Z,96822.06
2018-12-31T12:03:30.973Z,96819.36
2018-12-31T12:06:21.512Z,96814.03
2018-12-31T12:09:05.767Z,96810.48
2018-12-31T12:11:56.302Z,96806.74
2018-12-31T12:14:39.920Z,96811.89
2018-12-31T12:17:30.421Z,96810.58
2018-12-31T12:20:13.962Z,96805.68
2018-12-31T12:23:04.568Z,96811.14
2018-12-31T12:25:47.816Z,96805.43
2018-12-31T12:28:38.364Z,96813.91
2018-12-31T12:31:21.858Z,96816.36
2018-12-31T12:34:12.600Z,96817.86
2018-12-31T12:36:56.094Z,96820.69
2018-12-31T12:39:37.947Z,96817.80
2018-12-31T12:42:30.184Z,96822.03
2018-12-31T12:45:13.525Z,96816.44
2018-12-31T12:48:22.953Z,96818.42
2018-12-31T12:51:06.533Z,96814.74
2018-12-31T12:53:56.993Z,96806.77
2018-12-31T12:56:39.991Z,96807.14
2018-12-31T12:59:23.172Z,96806.20
2018-12-31T13:05:16.222Z,96809.66
2018-12-31T13:08:06.779Z,96815.77
2018-12-31T13:10:50.425Z,96817.13
2018-12-31T13:13:41.216Z,96812.12
2018-12-31T13:16:24.045Z,96812.67
2018-12-31T13:22:35.038Z,96811.66
2018-12-31T13:25:17.942Z,96805.29
2018-12-31T13:28:08.401Z,96813.33
2018-12-31T13:30:51.831Z,96811.53
2018-12-31T13:33:42.334Z,96813.22
2018-12-31T13:36:25.863Z,96822.34
2018-12-31T13:39:16.605Z,96817.30
2018-12-31T13:42:00.102Z,96818.98
2018-12-31T13:44:42.994Z,96828.79
2018-12-31T13:47:33.538Z,96832.34
2018-12-31T13:50:16.399Z,96835.47
2018-12-31T13:53:08.283Z,96831.34
2018-12-31T13:55:51.063Z,96831.22
2018-12-31T13:58:41.614Z,96814.33
2018-12-31T14:01:24.759Z,96815.99
2018-12-31T14:04:15.294Z,96821.92
2018-12-31T14:06:56.905Z,96823.59
2018-12-31T14:09:47.649Z,96827.79
2018-12-31T14:12:31.080Z,96836.50
2018-12-31T14:15:21.689Z,96824.13
2018-12-31T14:18:04.816Z,96830.17
2018-12-31T14:20:55.530Z,96830.95
2018-12-31T14:23:38.352Z,96842.55
2018-12-31T14:26:28.942Z,96841.12
2018-12-31T14:29:12.446Z,96844.88
2018-12-31T14:32:03.069Z,96849.84
2018-12-31T14:34:45.893Z,96843.33
2018-12-31T14:37:36.448Z,96853.12
2018-12-31T14:40:26.639Z,96856.20
2018-12-31T14:43:17.172Z,96865.41
2018-12-31T14:46:19.655Z,96870.30
2018-12-31T14:52:12.206Z,96863.88
2018-12-31T14:58:05.104Z,96871.23
2018-12-31T15:00:55.631Z,96858.13
2018-12-31T15:03:39.195Z,96855.95
2018-12-31T15:06:29.795Z,96858.34
2018-12-31T15:09:13.271Z,96857.75
2018-12-31T15:12:04.174Z,96850.08
2018-12-31T15:14:47.479Z,96861.03
2018-12-31T15:17:38.038Z,96868.97
2018-12-31T15:20:20.822Z,96866.52
2018-12-31T15:23:11.403Z,96865.23
2018-12-31T15:25:42.891Z,96870.33
2018-12-31T15:28:14.344Z,96871.53
2018-12-31T15:30:45.815Z,96873.37
2018-12-31T15:33:17.259Z,96874.95
2018-12-31T15:35:48.655Z,96877.60
2018-12-31T15:38:20.179Z,96881.06
2018-12-31T15:40:51.709Z,96885.77
2018-12-31T15:43:23.477Z,96888.37
2018-12-31T15:45:55.033Z,96891.64
2018-12-31T15:48:26.482Z,96887.14
2018-12-31T15:50:58.982Z,96890.36
2018-12-31T15:53:30.675Z,96879.79
2018-12-31T15:56:02.196Z,96882.52
2018-12-31T15:58:33.603Z,96883.84
2018-12-31T16:01:05.092Z,96886.63
2018-12-31T16:03:36.531Z,96895.52
2018-12-31T16:06:07.984Z,96895.50
2018-12-31T16:08:39.405Z,96898.14
2018-12-31T16:11:10.891Z,96902.33
2018-12-31T16:17:02.151Z,96908.53
2018-12-31T16:20:05.898Z,96910.97
2018-12-31T16:22:56.518Z,96905.94
2018-12-31T16:25:39.298Z,96908.06
2018-12-31T16:28:29.983Z,96906.40
2018-12-31T16:31:13.104Z,96909.59
2018-12-31T16:34:03.666Z,96899.43
2018-12-31T16:37:05.718Z,96912.05
2018-12-31T16:39:56.271Z,96918.44
2018-12-31T16:42:39.335Z,96917.61
2018-12-31T16:45:29.944Z,96918.63
2018-12-31T16:48:11.566Z,96916.27
2018-12-31T16:51:02.137Z,96908.89
2018-12-31T16:53:43.585Z,96907.88
2018-12-31T16:56:34.130Z,96909.16
2018-12-31T16:59:38.144Z,96902.42
2018-12-31T17:02:28.684Z,96896.77
2018-12-31T17:05:12.151Z,96897.61
2018-12-31T17:07:55.611Z,96907.91
2018-12-31T17:10:46.421Z,96903.67
2018-12-31T17:13:29.467Z,96897.66
2018-12-31T17:16:20.001Z,96899.67
2018-12-31T17:19:02.930Z,96899.04
2018-12-31T17:21:53.566Z,96915.52
2018-12-31T17:24:35.279Z,96920.36
2018-12-31T17:27:25.811Z,96926.83
2018-12-31T17:30:09.333Z,96921.98
2018-12-31T17:33:01.415Z,96929.72
2018-12-31T17:35:48.194Z,96936.47
2018-12-31T17:42:09.615Z,96931.46
2018-12-31T17:44:50.080Z,96933.56
2018-12-31T17:47:33.639Z,96926.04
2018-12-31T17:50:24.381Z,96920.88
2018-12-31T17:53:07.920Z,96930.70
2018-12-31T17:55:58.729Z,96926.61
2018-12-31T17:58:40.281Z,96918.81
2018-12-31T18:01:30.915Z,96926.22
2018-12-31T18:04:14.269Z,96925.50
2018-12-31T18:07:04.779Z,96925.66
2018-12-31T18:09:48.314Z,96932.16
2018-12-31T18:12:38.818Z,96936.75
2018-12-31T18:15:20.364Z,96940.62
2018-12-31T18:18:10.899Z,96926.50
2018-12-31T18:20:54.170Z,96930.44
2018-12-31T18:23:44.690Z,96925.22
2018-12-31T18:26:27.658Z,96915.23
2018-12-31T18:29:18.190Z,96923.47
2018-12-31T18:32:08.296Z,96921.98
2018-12-31T18:34:58.880Z,96926.04
2018-12-31T18:38:02.324Z,96920.03
2018-12-31T18:40:52.876Z,96928.02
2018-12-31T18:43:36.167Z,96931.58
2018-12-31T18:46:26.697Z,96925.77
2018-12-31T18:49:09.380Z,96926.68
2018-12-31T18:51:59.888Z,96932.34
2018-12-31T18:55:04.154Z,96939.62
2018-12-31T18:57:54.713Z,96943.11
2018-12-31T19:00:37.792Z,96950.94
2018-12-31T19:03:28.300Z,96950.54
2018-12-31T19:06:11.683Z,96948.47
2018-12-31T19:09:02.190Z,96945.38
2018-12-31T19:11:46.818Z,96945.89
2018-12-31T19:14:37.336Z,96946.39
2018-12-31T19:17:20.952Z,96949.09
2018-12-31T19:20:11.482Z,96947.38
2018-12-31T19:23:02.365Z,96944.23
2018-12-31T19:25:52.884Z,96954.00
2018-12-31T19:28:55.170Z,96952.03
2018-12-31T19:31:45.686Z,96958.60
2018-12-31T19:34:28.600Z,96959.37
2018-12-31T19:37:19.102Z,96958.47
2018-12-31T19:40:02.262Z,96961.10
2018-12-31T19:42:52.784Z,96960.13
2018-12-31T19:45:56.244Z,96957.75
2018-12-31T19:48:46.777Z,96961.25
2018-12-31T19:51:29.890Z,96968.53
2018-12-31T19:54:22.963Z,96969.73
2018-12-31T19:57:06.617Z,96963.23
2018-12-31T19:59:57.235Z,96958.27
2018-12-31T20:02:41.004Z,96952.86
2018-12-31T20:05:31.500Z,96942.13
2018-12-31T20:08:33.717Z,96935.51
2018-12-31T20:11:24.240Z,96930.28
2018-12-31T20:14:07.420Z,96931.53
2018-12-31T20:16:57.928Z,96936.08
2018-12-31T20:19:39.458Z,96927.44
2018-12-31T20:22:29.949Z,96924.54
2018-12-31T20:25:19.864Z,96926.41
2018-12-31T20:28:10.438Z,96921.52
2018-12-31T20:31:14.284Z,96926.17
2018-12-31T20:34:04.811Z,96921.02
2018-12-31T20:37:06.985Z,96920.16
2018-12-31T20:39:57.514Z,96921.33
2018-12-31T20:42:40.556Z,96922.96
2018-12-31T20:45:22.108Z,96921.42
2018-12-31T20:48:05.642Z,96929.16
2018-12-31T20:50:48.494Z,96930.58
2018-12-31T20:53:32.071Z,96921.81
2018-12-31T20:56:22.600Z,96921.93
2018-12-31T20:59:05.781Z,96922.97
2018-12-31T21:01:56.316Z,96923.40
2018-12-31T21:04:39.710Z,96927.45
2018-12-31T21:07:30.403Z,96935.44
2018-12-31T21:10:13.093Z,96927.59
2018-12-31T21:13:03.608Z,96930.22
2018-12-31T21:15:46.526Z,96927.02
2018-12-31T21:18:37.366Z,96917.60
2018-12-31T21:21:27.276Z,96923.55
2018-12-31T21:24:17.792Z,96924.64
2018-12-31T21:27:01.054Z,96936.48
2018-12-31T21:29:51.558Z,96939.52
2018-12-31T21:32:34.721Z,96941.84
2018-12-31T21:35:25.337Z,96934.80
2018-12-31T21:38:08.852Z,96931.84
2018-12-31T21:40:59.370Z,96933.23
2018-12-31T21:43:42.835Z,96923.38
2018-12-31T21:46:25.648Z,96928.05
2018-12-31T21:49:08.927Z,96931.33
2018-12-31T21:51:59.443Z,96931.75
2018-12-31T21:54:42.574Z,96929.45
2018-12-31T21:57:33.097Z,96921.83
2018-12-31T22:00:16.482Z,96921.22
2018-12-31T22:03:07.000Z,96923.33
2018-12-31T22:05:50.376Z,96922.83
2018-12-31T22:08:41.291Z,96915.72
2018-12-31T22:11:24.189Z,96907.75
2018-12-31T22:14:14.706Z,96903.69
2018-12-31T22:16:58.300Z,96901.19
2018-12-31T22:19:48.809Z,96904.39
2018-12-31T22:22:31.603Z,96908.52
2018-12-31T22:25:22.115Z,96900.52
2018-12-31T22:28:05.524Z,96894.69
2018-12-31T22:30:56.067Z,96895.62
2018-12-31T22:33:39.322Z,96897.13
2018-12-31T22:36:29.841Z,96894.34
2018-12-31T22:39:12.874Z,96888.75
2018-12-31T22:42:03.396Z,96888.55
2018-12-31T22:44:53.917Z,96888.16
2018-12-31T22:47:36.826Z,96882.66
2018-12-31T22:50:19.828Z,96884.66
2018-12-31T22:53:10.344Z,96883.39
2018-12-31T22:55:53.746Z,96885.52
2018-12-31T22:58:44.286Z,96881.08
2018-12-31T23:01:27.612Z,96884.62
2018-12-31T23:04:18.188Z,96884.92
2018-12-31T23:07:04.671Z,96873.19
2018-12-31T23:09:56.821Z,96868.64
2018-12-31T23:12:42.020Z,96873.51
2018-12-31T23:15:34.714Z,96872.28
2018-12-31T23:18:16.225Z,96878.66
2018-12-31T23:21:06.924Z,96878.73
2018-12-31T23:23:50.018Z,96880.12
2018-12-31T23:26:40.770Z,96872.64
2018-12-31T23:29:25.325Z,96875.98
2018-12-31T23:32:15.859Z,96864.96
2018-12-31T23:34:59.007Z,96870.44
2018-12-31T23:37:49.440Z,96877.78
2018-12-31T23:40:32.708Z,96870.98
2018-12-31T23:46:25.702Z,96858.85
2018-12-31T23:49:16.227Z,96864.23
2018-12-31T23:51:59.838Z,96861.33
2018-12-31T23:54:50.367Z,96868.08
2018-12-31T23:57:33.488Z,96882.73
